sensor_id;sensor_type;location;lat;lon;timestamp;P1;durP1;ratioP1;P2;durP2;ratioP2
23072;SDS011;34865;51.046;3.732;2022-12-18T00:02:06;121.13;;;58.80;;
23072;SDS011;34865;51.046;3.732;2022-12-18T00:04:32;117.13;;;55.00;;
23072;SDS011;34865;51.046;3.732;2022-12-18T00:06:58;117.27;;;56.80;;
23072;SDS011;34865;51.046;3.732;2022-12-18T00:09:24;123.53;;;59.40;;
23072;SDS011;34865;51.046;3.732;2022-12-18T00:11:49;123.90;;;58.97;;
23072;SDS011;34865;51.046;3.732;2022-12-18T00:14:15;137.03;;;57.30;;
23072;SDS011;34865;51.046;3.732;2022-12-18T00:16:45;120.43;;;56.00;;
23072;SDS011;34865;51.046;3.732;2022-12-18T00:19:11;130.93;;;56.20;;
23072;SDS011;34865;51.046;3.732;2022-12-18T00:21:38;125.20;;;54.30;;
23072;SDS011;34865;51.046;3.732;2022-12-18T00:24:05;126.40;;;54.20;;
23072;SDS011;34865;51.046;3.732;2022-12-18T00:26:32;119.33;;;49.37;;
23072;SDS011;34865;51.046;3.732;2022-12-18T00:29:04;107.77;;;47.63;;
23072;SDS011;34865;51.046;3.732;2022-12-18T00:31:32;111.03;;;49.30;;
23072;SDS011;34865;51.046;3.732;2022-12-18T00:33:58;106.70;;;45.77;;
23072;SDS011;34865;51.046;3.732;2022-12-18T00:36:26;114.33;;;47.70;;
23072;SDS011;34865;51.046;3.732;2022-12-18T00:38:57;107.13;;;46.60;;
23072;SDS011;34865;51.046;3.732;2022-12-18T00:41:24;111.97;;;49.50;;
23072;SDS011;34865;51.046;3.732;2022-12-18T00:44:10;108.23;;;45.77;;
23072;SDS011;34865;51.046;3.732;2022-12-18T00:46:38;115.00;;;45.97;;
23072;SDS011;34865;51.046;3.732;2022-12-18T00:49:04;109.73;;;48.27;;
23072;SDS011;34865;51.046;3.732;2022-12-18T00:51:29;100.90;;;44.30;;
23072;SDS011;34865;51.046;3.732;2022-12-18T00:53:55;112.23;;;46.33;;
23072;SDS011;34865;51.046;3.732;2022-12-18T00:56:21;107.37;;;45.10;;
23072;SDS011;34865;51.046;3.732;2022-12-18T00:58:46;108.97;;;44.43;;
23072;SDS011;34865;51.046;3.732;2022-12-18T01:01:12;105.90;;;45.30;;
23072;SDS011;34865;51.046;3.732;2022-12-18T01:03:38;103.33;;;43.20;;
23072;SDS011;34865;51.046;3.732;2022-12-18T01:06:08;104.00;;;45.97;;
23072;SDS011;34865;51.046;3.732;2022-12-18T01:08:37;104.67;;;45.27;;
23072;SDS011;34865;51.046;3.732;2022-12-18T01:11:07;105.00;;;44.40;;
23072;SDS011;34865;51.046;3.732;2022-12-18T01:13:40;105.23;;;44.23;;
23072;SDS011;34865;51.046;3.732;2022-12-18T01:16:06;105.73;;;43.80;;
23072;SDS011;34865;51.046;3.732;2022-12-18T01:18:33;95.47;;;42.10;;
23072;SDS011;34865;51.046;3.732;2022-12-18T01:20:59;94.17;;;42.57;;
23072;SDS011;34865;51.046;3.732;2022-12-18T01:23:25;103.67;;;43.53;;
23072;SDS011;34865;51.046;3.732;2022-12-18T01:25:50;101.77;;;42.53;;
23072;SDS011;34865;51.046;3.732;2022-12-18T01:28:16;95.47;;;37.77;;
23072;SDS011;34865;51.046;3.732;2022-12-18T01:30:42;92.87;;;40.47;;
23072;SDS011;34865;51.046;3.732;2022-12-18T01:33:07;90.47;;;39.30;;
23072;SDS011;34865;51.046;3.732;2022-12-18T01:35:33;95.53;;;40.37;;
23072;SDS011;34865;51.046;3.732;2022-12-18T01:38:05;101.67;;;39.60;;
23072;SDS011;34865;51.046;3.732;2022-12-18T01:40:31;93.80;;;40.87;;
23072;SDS011;34865;51.046;3.732;2022-12-18T01:42:56;95.10;;;40.40;;
23072;SDS011;34865;51.046;3.732;2022-12-18T01:45:27;90.23;;;38.03;;
23072;SDS011;34865;51.046;3.732;2022-12-18T01:48:00;93.00;;;37.80;;
23072;SDS011;34865;51.046;3.732;2022-12-18T01:50:31;91.00;;;37.97;;
23072;SDS011;34865;51.046;3.732;2022-12-18T01:53:05;84.00;;;35.90;;
23072;SDS011;34865;51.046;3.732;2022-12-18T01:55:36;84.33;;;34.90;;
23072;SDS011;34865;51.046;3.732;2022-12-18T01:58:06;95.50;;;38.37;;
23072;SDS011;34865;51.046;3.732;2022-12-18T02:00:31;85.00;;;35.70;;
23072;SDS011;34865;51.046;3.732;2022-12-18T02:02:57;74.20;;;32.83;;
23072;SDS011;34865;51.046;3.732;2022-12-18T02:08:20;81.07;;;33.30;;
23072;SDS011;34865;51.046;3.732;2022-12-18T02:13:44;76.10;;;33.70;;
23072;SDS011;34865;51.046;3.732;2022-12-18T02:16:20;76.83;;;30.97;;
23072;SDS011;34865;51.046;3.732;2022-12-18T02:18:56;75.50;;;31.07;;
23072;SDS011;34865;51.046;3.732;2022-12-18T02:21:36;75.47;;;31.33;;
23072;SDS011;34865;51.046;3.732;2022-12-18T02:27:09;86.53;;;32.67;;
23072;SDS011;34865;51.046;3.732;2022-12-18T02:29:40;76.93;;;33.00;;
23072;SDS011;34865;51.046;3.732;2022-12-18T02:32:18;75.47;;;30.27;;
23072;SDS011;34865;51.046;3.732;2022-12-18T02:34:49;72.87;;;30.97;;
23072;SDS011;34865;51.046;3.732;2022-12-18T02:37:17;71.37;;;29.43;;
23072;SDS011;34865;51.046;3.732;2022-12-18T02:39:46;72.00;;;30.80;;
23072;SDS011;34865;51.046;3.732;2022-12-18T02:42:14;78.90;;;32.67;;
23072;SDS011;34865;51.046;3.732;2022-12-18T02:44:45;75.73;;;30.37;;
23072;SDS011;34865;51.046;3.732;2022-12-18T02:47:15;82.00;;;33.10;;
23072;SDS011;34865;51.046;3.732;2022-12-18T02:55:41;73.97;;;31.67;;
23072;SDS011;34865;51.046;3.732;2022-12-18T02:58:20;75.27;;;30.57;;
23072;SDS011;34865;51.046;3.732;2022-12-18T03:04:01;76.33;;;30.57;;
23072;SDS011;34865;51.046;3.732;2022-12-18T03:06:37;61.50;;;27.30;;
23072;SDS011;34865;51.046;3.732;2022-12-18T03:09:07;67.00;;;27.37;;
23072;SDS011;34865;51.046;3.732;2022-12-18T03:11:37;60.60;;;27.87;;
23072;SDS011;34865;51.046;3.732;2022-12-18T03:14:25;61.77;;;25.87;;
23072;SDS011;34865;51.046;3.732;2022-12-18T03:16:54;62.90;;;27.97;;
23072;SDS011;34865;51.046;3.732;2022-12-18T03:19:26;67.87;;;28.93;;
23072;SDS011;34865;51.046;3.732;2022-12-18T03:21:54;74.70;;;29.70;;
23072;SDS011;34865;51.046;3.732;2022-12-18T03:24:22;65.23;;;29.10;;
23072;SDS011;34865;51.046;3.732;2022-12-18T03:26:50;69.57;;;29.93;;
23072;SDS011;34865;51.046;3.732;2022-12-18T03:29:25;65.90;;;27.17;;
23072;SDS011;34865;51.046;3.732;2022-12-18T03:31:56;62.47;;;26.03;;
23072;SDS011;34865;51.046;3.732;2022-12-18T03:34:33;69.20;;;26.60;;
23072;SDS011;34865;51.046;3.732;2022-12-18T03:37:02;64.67;;;27.50;;
23072;SDS011;34865;51.046;3.732;2022-12-18T03:39:28;65.80;;;24.97;;
23072;SDS011;34865;51.046;3.732;2022-12-18T03:47:16;60.70;;;25.63;;
23072;SDS011;34865;51.046;3.732;2022-12-18T03:52:38;67.43;;;26.43;;
23072;SDS011;34865;51.046;3.732;2022-12-18T03:55:18;58.83;;;24.73;;
23072;SDS011;34865;51.046;3.732;2022-12-18T03:57:46;64.83;;;26.00;;
23072;SDS011;34865;51.046;3.732;2022-12-18T04:00:14;62.03;;;25.63;;
23072;SDS011;34865;51.046;3.732;2022-12-18T04:02:44;59.27;;;24.87;;
23072;SDS011;34865;51.046;3.732;2022-12-18T04:05:14;65.70;;;26.23;;
23072;SDS011;34865;51.046;3.732;2022-12-18T04:07:41;63.80;;;27.87;;
23072;SDS011;34865;51.046;3.732;2022-12-18T04:10:08;62.03;;;27.20;;
23072;SDS011;34865;51.046;3.732;2022-12-18T04:12:37;54.73;;;25.57;;
23072;SDS011;34865;51.046;3.732;2022-12-18T04:15:03;63.93;;;26.07;;
23072;SDS011;34865;51.046;3.732;2022-12-18T04:17:29;61.53;;;24.27;;
23072;SDS011;34865;51.046;3.732;2022-12-18T04:19:55;64.73;;;26.50;;
23072;SDS011;34865;51.046;3.732;2022-12-18T04:22:20;43.80;;;20.07;;
23072;SDS011;34865;51.046;3.732;2022-12-18T04:24:46;60.80;;;27.17;;
23072;SDS011;34865;51.046;3.732;2022-12-18T04:27:12;61.27;;;24.67;;
23072;SDS011;34865;51.046;3.732;2022-12-18T04:29:37;55.03;;;24.07;;
23072;SDS011;34865;51.046;3.732;2022-12-18T04:32:03;55.80;;;23.10;;
23072;SDS011;34865;51.046;3.732;2022-12-18T04:34:29;51.63;;;21.50;;
23072;SDS011;34865;51.046;3.732;2022-12-18T04:36:54;63.30;;;24.97;;
23072;SDS011;34865;51.046;3.732;2022-12-18T04:39:20;57.87;;;22.83;;
23072;SDS011;34865;51.046;3.732;2022-12-18T04:41:45;46.23;;;19.53;;
23072;SDS011;34865;51.046;3.732;2022-12-18T04:44:11;63.07;;;24.07;;
23072;SDS011;34865;51.046;3.732;2022-12-18T04:46:36;60.00;;;24.20;;
23072;SDS011;34865;51.046;3.732;2022-12-18T04:49:02;61.83;;;25.47;;
23072;SDS011;34865;51.046;3.732;2022-12-18T04:51:28;52.37;;;22.00;;
23072;SDS011;34865;51.046;3.732;2022-12-18T04:53:53;63.07;;;26.10;;
23072;SDS011;34865;51.046;3.732;2022-12-18T04:56:19;56.73;;;23.87;;
23072;SDS011;34865;51.046;3.732;2022-12-18T04:58:45;54.00;;;23.40;;
23072;SDS011;34865;51.046;3.732;2022-12-18T05:01:11;54.57;;;23.00;;
23072;SDS011;34865;51.046;3.732;2022-12-18T05:03:38;58.90;;;25.90;;
23072;SDS011;34865;51.046;3.732;2022-12-18T05:06:04;64.13;;;23.27;;
23072;SDS011;34865;51.046;3.732;2022-12-18T05:08:31;58.87;;;24.13;;
23072;SDS011;34865;51.046;3.732;2022-12-18T05:13:30;59.23;;;23.13;;
23072;SDS011;34865;51.046;3.732;2022-12-18T05:15:57;50.17;;;21.17;;
23072;SDS011;34865;51.046;3.732;2022-12-18T05:18:23;56.77;;;23.80;;
23072;SDS011;34865;51.046;3.732;2022-12-18T05:20:50;52.13;;;22.40;;
23072;SDS011;34865;51.046;3.732;2022-12-18T05:23:16;54.20;;;21.97;;
23072;SDS011;34865;51.046;3.732;2022-12-18T05:25:42;55.03;;;23.63;;
23072;SDS011;34865;51.046;3.732;2022-12-18T05:28:11;60.30;;;24.97;;
23072;SDS011;34865;51.046;3.732;2022-12-18T05:30:37;50.37;;;23.07;;
23072;SDS011;34865;51.046;3.732;2022-12-18T05:33:02;50.63;;;22.93;;
23072;SDS011;34865;51.046;3.732;2022-12-18T05:35:28;51.43;;;22.17;;
23072;SDS011;34865;51.046;3.732;2022-12-18T05:37:53;57.93;;;24.10;;
23072;SDS011;34865;51.046;3.732;2022-12-18T05:40:19;51.33;;;23.53;;
23072;SDS011;34865;51.046;3.732;2022-12-18T05:42:44;52.27;;;22.03;;
23072;SDS011;34865;51.046;3.732;2022-12-18T05:45:10;60.47;;;26.27;;
23072;SDS011;34865;51.046;3.732;2022-12-18T05:47:36;66.50;;;24.70;;
23072;SDS011;34865;51.046;3.732;2022-12-18T05:50:01;62.73;;;24.60;;
23072;SDS011;34865;51.046;3.732;2022-12-18T05:52:27;52.83;;;23.40;;
23072;SDS011;34865;51.046;3.732;2022-12-18T05:54:53;57.43;;;23.40;;
23072;SDS011;34865;51.046;3.732;2022-12-18T05:57:18;58.83;;;23.30;;
23072;SDS011;34865;51.046;3.732;2022-12-18T05:59:44;51.37;;;23.23;;
23072;SDS011;34865;51.046;3.732;2022-12-18T06:02:09;46.30;;;20.47;;
23072;SDS011;34865;51.046;3.732;2022-12-18T06:04:35;50.70;;;23.33;;
23072;SDS011;34865;51.046;3.732;2022-12-18T06:07:01;56.47;;;22.40;;
23072;SDS011;34865;51.046;3.732;2022-12-18T06:09:26;45.93;;;18.87;;
23072;SDS011;34865;51.046;3.732;2022-12-18T06:11:53;46.47;;;19.73;;
23072;SDS011;34865;51.046;3.732;2022-12-18T06:14:19;42.33;;;18.00;;
23072;SDS011;34865;51.046;3.732;2022-12-18T06:16:44;49.80;;;20.80;;
23072;SDS011;34865;51.046;3.732;2022-12-18T06:19:13;50.77;;;21.70;;
23072;SDS011;34865;51.046;3.732;2022-12-18T06:21:40;48.23;;;21.90;;
23072;SDS011;34865;51.046;3.732;2022-12-18T06:24:06;36.97;;;16.20;;
23072;SDS011;34865;51.046;3.732;2022-12-18T06:26:32;45.93;;;19.40;;
23072;SDS011;34865;51.046;3.732;2022-12-18T06:28:57;44.87;;;21.87;;
23072;SDS011;34865;51.046;3.732;2022-12-18T06:31:23;42.97;;;18.27;;
23072;SDS011;34865;51.046;3.732;2022-12-18T06:33:49;42.67;;;19.63;;
23072;SDS011;34865;51.046;3.732;2022-12-18T06:36:18;49.20;;;21.70;;
23072;SDS011;34865;51.046;3.732;2022-12-18T06:38:45;43.40;;;18.60;;
23072;SDS011;34865;51.046;3.732;2022-12-18T06:41:12;46.07;;;18.67;;
23072;SDS011;34865;51.046;3.732;2022-12-18T06:43:42;34.00;;;16.77;;
23072;SDS011;34865;51.046;3.732;2022-12-18T06:46:09;41.67;;;19.13;;
23072;SDS011;34865;51.046;3.732;2022-12-18T06:48:35;42.80;;;18.70;;
23072;SDS011;34865;51.046;3.732;2022-12-18T06:51:02;42.33;;;18.87;;
23072;SDS011;34865;51.046;3.732;2022-12-18T06:53:28;46.60;;;20.10;;
23072;SDS011;34865;51.046;3.732;2022-12-18T06:56:01;44.53;;;18.97;;
23072;SDS011;34865;51.046;3.732;2022-12-18T06:58:31;43.07;;;18.27;;
23072;SDS011;34865;51.046;3.732;2022-12-18T07:01:00;38.40;;;19.20;;
23072;SDS011;34865;51.046;3.732;2022-12-18T07:03:27;41.37;;;18.77;;
23072;SDS011;34865;51.046;3.732;2022-12-18T07:05:53;43.80;;;19.87;;
23072;SDS011;34865;51.046;3.732;2022-12-18T07:08:18;42.27;;;19.07;;
23072;SDS011;34865;51.046;3.732;2022-12-18T07:10:44;39.03;;;17.10;;
23072;SDS011;34865;51.046;3.732;2022-12-18T07:13:10;47.60;;;18.57;;
23072;SDS011;34865;51.046;3.732;2022-12-18T07:15:36;40.40;;;19.67;;
23072;SDS011;34865;51.046;3.732;2022-12-18T07:18:01;39.30;;;17.03;;
23072;SDS011;34865;51.046;3.732;2022-12-18T07:20:27;44.70;;;17.50;;
23072;SDS011;34865;51.046;3.732;2022-12-18T07:22:53;37.90;;;16.17;;
23072;SDS011;34865;51.046;3.732;2022-12-18T07:25:18;40.83;;;16.53;;
23072;SDS011;34865;51.046;3.732;2022-12-18T07:27:44;36.37;;;18.00;;
23072;SDS011;34865;51.046;3.732;2022-12-18T07:30:09;36.23;;;16.43;;
23072;SDS011;34865;51.046;3.732;2022-12-18T07:32:35;34.97;;;16.50;;
23072;SDS011;34865;51.046;3.732;2022-12-18T07:35:01;40.57;;;16.70;;
23072;SDS011;34865;51.046;3.732;2022-12-18T07:37:27;37.07;;;14.67;;
23072;SDS011;34865;51.046;3.732;2022-12-18T07:39:53;37.40;;;17.63;;
23072;SDS011;34865;51.046;3.732;2022-12-18T07:42:18;33.70;;;16.70;;
23072;SDS011;34865;51.046;3.732;2022-12-18T07:44:56;32.87;;;15.90;;
23072;SDS011;34865;51.046;3.732;2022-12-18T07:47:22;39.63;;;18.17;;
23072;SDS011;34865;51.046;3.732;2022-12-18T07:49:48;39.87;;;16.37;;
23072;SDS011;34865;51.046;3.732;2022-12-18T07:52:13;40.70;;;16.63;;
23072;SDS011;34865;51.046;3.732;2022-12-18T07:54:39;39.50;;;19.63;;
23072;SDS011;34865;51.046;3.732;2022-12-18T07:57:05;36.20;;;17.43;;
23072;SDS011;34865;51.046;3.732;2022-12-18T07:59:31;36.63;;;18.33;;
23072;SDS011;34865;51.046;3.732;2022-12-18T08:01:57;35.33;;;17.93;;
23072;SDS011;34865;51.046;3.732;2022-12-18T08:04:23;37.33;;;17.40;;
23072;SDS011;34865;51.046;3.732;2022-12-18T08:06:49;36.13;;;17.47;;
23072;SDS011;34865;51.046;3.732;2022-12-18T08:09:15;34.70;;;17.67;;
23072;SDS011;34865;51.046;3.732;2022-12-18T08:11:41;38.47;;;18.37;;
23072;SDS011;34865;51.046;3.732;2022-12-18T08:14:06;41.37;;;17.27;;
23072;SDS011;34865;51.046;3.732;2022-12-18T08:16:32;35.47;;;17.53;;
23072;SDS011;34865;51.046;3.732;2022-12-18T08:18:58;31.03;;;15.27;;
23072;SDS011;34865;51.046;3.732;2022-12-18T08:21:24;40.73;;;17.57;;
23072;SDS011;34865;51.046;3.732;2022-12-18T08:23:52;38.37;;;16.87;;
23072;SDS011;34865;51.046;3.732;2022-12-18T08:26:19;33.23;;;15.97;;
23072;SDS011;34865;51.046;3.732;2022-12-18T08:28:45;34.37;;;16.77;;
23072;SDS011;34865;51.046;3.732;2022-12-18T08:31:11;39.93;;;18.43;;
23072;SDS011;34865;51.046;3.732;2022-12-18T08:33:37;33.43;;;17.57;;
23072;SDS011;34865;51.046;3.732;2022-12-18T08:36:04;32.33;;;16.37;;
23072;SDS011;34865;51.046;3.732;2022-12-18T08:38:53;36.27;;;16.20;;
23072;SDS011;34865;51.046;3.732;2022-12-18T08:41:23;34.40;;;15.23;;
23072;SDS011;34865;51.046;3.732;2022-12-18T08:43:49;33.23;;;15.77;;
23072;SDS011;34865;51.046;3.732;2022-12-18T08:46:34;33.27;;;15.77;;
23072;SDS011;34865;51.046;3.732;2022-12-18T08:49:06;32.70;;;16.00;;
23072;SDS011;34865;51.046;3.732;2022-12-18T08:51:34;33.23;;;16.47;;
23072;SDS011;34865;51.046;3.732;2022-12-18T08:54:04;32.23;;;16.57;;
23072;SDS011;34865;51.046;3.732;2022-12-18T08:56:31;34.07;;;15.83;;
23072;SDS011;34865;51.046;3.732;2022-12-18T08:59:01;30.17;;;14.87;;
23072;SDS011;34865;51.046;3.732;2022-12-18T09:01:27;31.90;;;15.63;;
23072;SDS011;34865;51.046;3.732;2022-12-18T09:03:53;35.60;;;15.70;;
23072;SDS011;34865;51.046;3.732;2022-12-18T09:06:22;32.20;;;15.70;;
23072;SDS011;34865;51.046;3.732;2022-12-18T09:08:50;30.30;;;16.37;;
23072;SDS011;34865;51.046;3.732;2022-12-18T09:11:21;29.43;;;14.43;;
23072;SDS011;34865;51.046;3.732;2022-12-18T09:13:51;31.17;;;13.83;;
23072;SDS011;34865;51.046;3.732;2022-12-18T09:16:19;29.50;;;15.20;;
23072;SDS011;34865;51.046;3.732;2022-12-18T09:18:45;33.80;;;15.00;;
23072;SDS011;34865;51.046;3.732;2022-12-18T09:21:12;33.43;;;15.13;;
23072;SDS011;34865;51.046;3.732;2022-12-18T09:23:40;28.03;;;15.07;;
23072;SDS011;34865;51.046;3.732;2022-12-18T09:26:06;29.17;;;14.87;;
23072;SDS011;34865;51.046;3.732;2022-12-18T09:28:32;31.13;;;14.33;;
23072;SDS011;34865;51.046;3.732;2022-12-18T09:30:58;31.07;;;15.20;;
23072;SDS011;34865;51.046;3.732;2022-12-18T09:33:24;29.17;;;15.73;;
23072;SDS011;34865;51.046;3.732;2022-12-18T09:35:49;30.20;;;14.63;;
23072;SDS011;34865;51.046;3.732;2022-12-18T09:38:17;28.87;;;14.70;;
23072;SDS011;34865;51.046;3.732;2022-12-18T09:40:48;33.80;;;16.23;;
23072;SDS011;34865;51.046;3.732;2022-12-18T09:43:23;28.70;;;15.40;;
23072;SDS011;34865;51.046;3.732;2022-12-18T09:45:58;30.27;;;14.33;;
23072;SDS011;34865;51.046;3.732;2022-12-18T09:48:30;28.40;;;15.43;;
23072;SDS011;34865;51.046;3.732;2022-12-18T09:51:00;29.23;;;14.93;;
23072;SDS011;34865;51.046;3.732;2022-12-18T09:53:31;31.23;;;15.60;;
23072;SDS011;34865;51.046;3.732;2022-12-18T09:56:00;29.27;;;14.77;;
23072;SDS011;34865;51.046;3.732;2022-12-18T09:58:36;31.77;;;16.07;;
23072;SDS011;34865;51.046;3.732;2022-12-18T10:01:15;27.63;;;14.07;;
23072;SDS011;34865;51.046;3.732;2022-12-18T10:03:46;31.97;;;15.40;;
23072;SDS011;34865;51.046;3.732;2022-12-18T10:14:57;30.73;;;16.00;;
23072;SDS011;34865;51.046;3.732;2022-12-18T10:18:41;29.13;;;15.10;;
23072;SDS011;34865;51.046;3.732;2022-12-18T10:20:49;29.13;;;15.73;;
23072;SDS011;34865;51.046;3.732;2022-12-18T10:25:55;25.73;;;14.40;;
23072;SDS011;34865;51.046;3.732;2022-12-18T10:28:31;28.33;;;14.83;;
23072;SDS011;34865;51.046;3.732;2022-12-18T10:31:01;31.20;;;16.07;;
23072;SDS011;34865;51.046;3.732;2022-12-18T10:33:28;33.30;;;16.30;;
23072;SDS011;34865;51.046;3.732;2022-12-18T10:35:56;30.50;;;16.40;;
23072;SDS011;34865;51.046;3.732;2022-12-18T10:38:27;33.37;;;16.57;;
23072;SDS011;34865;51.046;3.732;2022-12-18T10:46:02;34.00;;;16.67;;
23072;SDS011;34865;51.046;3.732;2022-12-18T10:48:54;34.07;;;16.73;;
23072;SDS011;34865;51.046;3.732;2022-12-18T10:51:20;30.10;;;15.27;;
23072;SDS011;34865;51.046;3.732;2022-12-18T10:53:53;31.83;;;16.07;;
23072;SDS011;34865;51.046;3.732;2022-12-18T10:56:25;28.40;;;15.03;;
23072;SDS011;34865;51.046;3.732;2022-12-18T10:58:56;32.20;;;16.50;;
23072;SDS011;34865;51.046;3.732;2022-12-18T11:01:24;29.63;;;15.93;;
23072;SDS011;34865;51.046;3.732;2022-12-18T11:06:16;29.83;;;15.67;;
23072;SDS011;34865;51.046;3.732;2022-12-18T11:09:03;30.43;;;17.43;;
23072;SDS011;34865;51.046;3.732;2022-12-18T11:11:57;31.40;;;16.00;;
23072;SDS011;34865;51.046;3.732;2022-12-18T11:16:51;32.03;;;16.70;;
23072;SDS011;34865;51.046;3.732;2022-12-18T11:19:34;30.47;;;16.97;;
23072;SDS011;34865;51.046;3.732;2022-12-18T11:22:21;37.57;;;17.20;;
23072;SDS011;34865;51.046;3.732;2022-12-18T11:27:29;33.03;;;17.80;;
23072;SDS011;34865;51.046;3.732;2022-12-18T11:30:07;30.20;;;16.33;;
23072;SDS011;34865;51.046;3.732;2022-12-18T11:32:37;33.07;;;16.27;;
23072;SDS011;34865;51.046;3.732;2022-12-18T11:35:13;38.07;;;17.67;;
23072;SDS011;34865;51.046;3.732;2022-12-18T11:38:12;28.30;;;15.80;;
23072;SDS011;34865;51.046;3.732;2022-12-18T11:40:51;33.03;;;15.83;;
23072;SDS011;34865;51.046;3.732;2022-12-18T11:46:19;27.70;;;15.70;;
23072;SDS011;34865;51.046;3.732;2022-12-18T11:48:58;27.87;;;14.83;;
23072;SDS011;34865;51.046;3.732;2022-12-18T11:51:35;28.90;;;15.80;;
23072;SDS011;34865;51.046;3.732;2022-12-18T11:54:14;30.53;;;15.13;;
23072;SDS011;34865;51.046;3.732;2022-12-18T11:56:46;31.97;;;15.37;;
23072;SDS011;34865;51.046;3.732;2022-12-18T12:02:03;33.13;;;16.90;;
23072;SDS011;34865;51.046;3.732;2022-12-18T12:07:31;29.87;;;15.43;;
23072;SDS011;34865;51.046;3.732;2022-12-18T12:16:09;26.67;;;14.97;;
23072;SDS011;34865;51.046;3.732;2022-12-18T12:18:47;32.77;;;16.30;;
23072;SDS011;34865;51.046;3.732;2022-12-18T12:21:38;28.07;;;15.83;;
23072;SDS011;34865;51.046;3.732;2022-12-18T12:38:54;31.90;;;15.83;;
23072;SDS011;34865;51.046;3.732;2022-12-18T12:41:42;38.63;;;21.03;;
23072;SDS011;34865;51.046;3.732;2022-12-18T12:44:30;34.23;;;17.87;;
23072;SDS011;34865;51.046;3.732;2022-12-18T12:47:21;31.90;;;17.27;;
23072;SDS011;34865;51.046;3.732;2022-12-18T12:50:03;34.47;;;18.70;;
23072;SDS011;34865;51.046;3.732;2022-12-18T12:52:35;35.57;;;18.53;;
23072;SDS011;34865;51.046;3.732;2022-12-18T12:55:07;35.20;;;18.40;;
23072;SDS011;34865;51.046;3.732;2022-12-18T12:57:41;36.37;;;18.27;;
23072;SDS011;34865;51.046;3.732;2022-12-18T13:02:42;35.93;;;18.63;;
23072;SDS011;34865;51.046;3.732;2022-12-18T13:08:23;41.03;;;20.67;;
23072;SDS011;34865;51.046;3.732;2022-12-18T13:10:54;42.10;;;21.83;;
23072;SDS011;34865;51.046;3.732;2022-12-18T13:13:51;43.67;;;21.43;;
23072;SDS011;34865;51.046;3.732;2022-12-18T13:16:20;45.20;;;23.13;;
23072;SDS011;34865;51.046;3.732;2022-12-18T13:18:51;44.10;;;24.43;;
23072;SDS011;34865;51.046;3.732;2022-12-18T13:21:27;43.40;;;22.40;;
23072;SDS011;34865;51.046;3.732;2022-12-18T13:23:55;38.37;;;20.03;;
23072;SDS011;34865;51.046;3.732;2022-12-18T13:28:52;41.47;;;21.53;;
23072;SDS011;34865;51.046;3.732;2022-12-18T13:34:22;36.47;;;20.33;;
23072;SDS011;34865;51.046;3.732;2022-12-18T13:36:51;42.93;;;20.33;;
23072;SDS011;34865;51.046;3.732;2022-12-18T13:41:47;44.43;;;21.10;;
23072;SDS011;34865;51.046;3.732;2022-12-18T13:46:44;49.97;;;24.17;;
23072;SDS011;34865;51.046;3.732;2022-12-18T13:51:40;43.13;;;20.40;;
23072;SDS011;34865;51.046;3.732;2022-12-18T13:56:52;44.87;;;21.80;;
23072;SDS011;34865;51.046;3.732;2022-12-18T14:01:51;44.97;;;22.67;;
23072;SDS011;34865;51.046;3.732;2022-12-18T14:04:28;47.03;;;22.57;;
23072;SDS011;34865;51.046;3.732;2022-12-18T14:06:58;31.67;;;15.13;;
23072;SDS011;34865;51.046;3.732;2022-12-18T14:09:29;41.37;;;21.17;;
23072;SDS011;34865;51.046;3.732;2022-12-18T14:11:59;41.53;;;22.77;;
23072;SDS011;34865;51.046;3.732;2022-12-18T14:14:45;39.87;;;20.97;;
23072;SDS011;34865;51.046;3.732;2022-12-18T14:17:13;52.40;;;22.47;;
23072;SDS011;34865;51.046;3.732;2022-12-18T14:19:41;52.27;;;24.37;;
23072;SDS011;34865;51.046;3.732;2022-12-18T14:22:17;47.83;;;24.43;;
23072;SDS011;34865;51.046;3.732;2022-12-18T14:24:46;44.63;;;23.10;;
23072;SDS011;34865;51.046;3.732;2022-12-18T14:27:19;45.53;;;22.40;;
23072;SDS011;34865;51.046;3.732;2022-12-18T14:29:50;47.07;;;23.90;;
23072;SDS011;34865;51.046;3.732;2022-12-18T14:32:17;37.07;;;17.43;;
23072;SDS011;34865;51.046;3.732;2022-12-18T14:34:45;45.20;;;23.20;;
23072;SDS011;34865;51.046;3.732;2022-12-18T14:37:16;52.70;;;23.40;;
23072;SDS011;34865;51.046;3.732;2022-12-18T14:39:55;50.83;;;21.87;;
23072;SDS011;34865;51.046;3.732;2022-12-18T14:42:25;44.83;;;22.40;;
23072;SDS011;34865;51.046;3.732;2022-12-18T14:47:56;49.10;;;22.87;;
23072;SDS011;34865;51.046;3.732;2022-12-18T14:50:22;46.57;;;22.70;;
23072;SDS011;34865;51.046;3.732;2022-12-18T14:52:48;41.73;;;21.03;;
23072;SDS011;34865;51.046;3.732;2022-12-18T14:55:15;45.53;;;22.13;;
23072;SDS011;34865;51.046;3.732;2022-12-18T14:57:42;46.70;;;21.33;;
23072;SDS011;34865;51.046;3.732;2022-12-18T15:00:16;48.17;;;21.63;;
23072;SDS011;34865;51.046;3.732;2022-12-18T15:02:46;46.97;;;22.67;;
23072;SDS011;34865;51.046;3.732;2022-12-18T15:08:00;44.07;;;20.83;;
23072;SDS011;34865;51.046;3.732;2022-12-18T15:10:28;48.90;;;20.03;;
23072;SDS011;34865;51.046;3.732;2022-12-18T15:20:33;50.47;;;23.67;;
23072;SDS011;34865;51.046;3.732;2022-12-18T15:23:18;52.40;;;23.80;;
23072;SDS011;34865;51.046;3.732;2022-12-18T15:25:47;43.90;;;21.77;;
23072;SDS011;34865;51.046;3.732;2022-12-18T15:28:22;42.27;;;21.33;;
23072;SDS011;34865;51.046;3.732;2022-12-18T15:31:05;46.93;;;22.23;;
23072;SDS011;34865;51.046;3.732;2022-12-18T15:33:38;52.63;;;23.53;;
23072;SDS011;34865;51.046;3.732;2022-12-18T15:36:16;50.33;;;23.87;;
23072;SDS011;34865;51.046;3.732;2022-12-18T15:38:46;45.63;;;22.47;;
23072;SDS011;34865;51.046;3.732;2022-12-18T15:41:13;47.90;;;22.53;;
23072;SDS011;34865;51.046;3.732;2022-12-18T15:43:39;51.27;;;21.00;;
23072;SDS011;34865;51.046;3.732;2022-12-18T15:46:06;51.23;;;24.33;;
23072;SDS011;34865;51.046;3.732;2022-12-18T15:48:58;46.83;;;23.03;;
23072;SDS011;34865;51.046;3.732;2022-12-18T15:51:36;49.80;;;22.50;;
23072;SDS011;34865;51.046;3.732;2022-12-18T15:54:04;49.53;;;22.47;;
23072;SDS011;34865;51.046;3.732;2022-12-18T15:56:34;41.40;;;18.80;;
23072;SDS011;34865;51.046;3.732;2022-12-18T15:59:19;48.77;;;23.37;;
23072;SDS011;34865;51.046;3.732;2022-12-18T16:01:47;55.73;;;22.03;;
23072;SDS011;34865;51.046;3.732;2022-12-18T16:04:16;40.53;;;19.17;;
23072;SDS011;34865;51.046;3.732;2022-12-18T16:06:52;52.93;;;24.83;;
23072;SDS011;34865;51.046;3.732;2022-12-18T16:09:17;47.70;;;22.77;;
23072;SDS011;34865;51.046;3.732;2022-12-18T16:11:43;46.47;;;21.20;;
23072;SDS011;34865;51.046;3.732;2022-12-18T16:14:22;46.93;;;23.03;;
23072;SDS011;34865;51.046;3.732;2022-12-18T16:16:55;46.13;;;22.57;;
23072;SDS011;34865;51.046;3.732;2022-12-18T16:19:26;45.17;;;22.83;;
23072;SDS011;34865;51.046;3.732;2022-12-18T16:21:53;51.10;;;22.37;;
23072;SDS011;34865;51.046;3.732;2022-12-18T16:24:22;54.80;;;24.57;;
23072;SDS011;34865;51.046;3.732;2022-12-18T16:26:53;46.63;;;21.20;;
23072;SDS011;34865;51.046;3.732;2022-12-18T16:29:19;52.07;;;22.13;;
23072;SDS011;34865;51.046;3.732;2022-12-18T16:31:49;47.47;;;22.30;;
23072;SDS011;34865;51.046;3.732;2022-12-18T16:34:19;46.70;;;21.77;;
23072;SDS011;34865;51.046;3.732;2022-12-18T16:36:50;40.50;;;18.80;;